Mali Ston, Croatia
Current Conditions -  °F | °C
As of 6:00 PM on Friday 31 Oct 2014 (Local Time) from LDDU Reporting Station
Clear Clear  
Wind Chill: 57°   Ceiling: Unl
Heat Index: 57°   Visibility: 6mi
Dew Point: 45°   Wind: 7mph
Humidity: 63%   Direction: 70°ENE
Pressure: 30.15"   Gusts: NA
Location:  42.84°N, 17.69°E
Report Text: LDDU 311600Z 07006KT 010V100 CAVOK 14/07 Q1021 BECMG 02016KT
Loading
Personal Weather Stations






























Interactive Weather Map
Tropical Storm Tracking
New forecast layout! Learn more

10-Day Weather Forecast

Advertisements
Track Severe Weather on mobile